createdAt,value
2018-12-07T00:00:40.404Z,43.64
2018-12-07T00:03:19.503Z,43.09
2018-12-07T00:05:58.167Z,43.12
2018-12-07T00:08:37.283Z,42.32
2018-12-07T00:11:16.904Z,42.65
2018-12-07T00:13:58.606Z,43.32
2018-12-07T00:16:37.812Z,42.62
2018-12-07T00:19:16.518Z,43.61
2018-12-07T00:21:57.922Z,43.26
2018-12-07T00:24:36.438Z,42.54
2018-12-07T00:27:16.100Z,42.37
2018-12-07T00:29:55.887Z,41.84
2018-12-07T00:32:34.531Z,42.14
2018-12-07T00:35:13.294Z,42.16
2018-12-07T00:37:51.921Z,42.28
2018-12-07T00:40:30.595Z,41.16
2018-12-07T00:43:09.175Z,41.63
2018-12-07T00:45:48.127Z,41.60
2018-12-07T00:48:27.480Z,41.36
2018-12-07T00:51:06.566Z,41.53
2018-12-07T00:53:45.546Z,41.68
2018-12-07T00:56:26.009Z,41.57
2018-12-07T00:59:04.689Z,41.25
2018-12-07T01:01:44.589Z,41.13
2018-12-07T01:04:24.929Z,41.23
2018-12-07T01:07:04.081Z,40.62
2018-12-07T01:09:42.665Z,39.84
2018-12-07T01:12:21.304Z,40.62
2018-12-07T01:15:00.213Z,40.98
2018-12-07T01:17:39.110Z,39.92
2018-12-07T01:20:17.877Z,40.42
2018-12-07T01:22:56.853Z,40.24
2018-12-07T01:25:35.577Z,39.55
2018-12-07T01:28:14.444Z,39.67
2018-12-07T01:30:55.704Z,39.86
2018-12-07T01:33:34.332Z,38.93
2018-12-07T01:36:14.120Z,40.31
2018-12-07T01:38:52.828Z,39.61
2018-12-07T01:41:31.793Z,39.26
2018-12-07T01:44:10.505Z,38.48
2018-12-07T01:46:49.527Z,38.24
2018-12-07T01:49:28.194Z,38.26
2018-12-07T01:52:06.776Z,38.66
2018-12-07T01:54:45.561Z,39.06
2018-12-07T01:57:24.170Z,38.10
2018-12-07T02:00:05.131Z,37.41
2018-12-07T02:02:44.699Z,37.28
2018-12-07T02:05:25.501Z,37.08
2018-12-07T02:08:04.144Z,37.12
2018-12-07T02:10:42.934Z,37.61
2018-12-07T02:13:21.595Z,37.37
2018-12-07T02:16:00.113Z,37.12
2018-12-07T02:18:38.982Z,37.09
2018-12-07T02:21:17.670Z,36.55
2018-12-07T02:23:56.856Z,36.65
2018-12-07T02:26:35.499Z,36.14
2018-12-07T02:29:14.904Z,36.10
2018-12-07T02:31:53.752Z,36.50
2018-12-07T02:34:33.528Z,35.05
2018-12-07T02:37:12.508Z,34.72
2018-12-07T02:39:51.604Z,34.27
2018-12-07T02:42:30.151Z,33.55
2018-12-07T02:45:10.872Z,34.56
2018-12-07T02:47:49.832Z,33.97
2018-12-07T02:50:29.115Z,33.88
2018-12-07T02:53:08.258Z,34.12
2018-12-07T02:55:47.267Z,33.18
2018-12-07T02:58:27.273Z,33.28
2018-12-07T03:01:09.629Z,32.63
2018-12-07T03:03:49.013Z,32.76
2018-12-07T03:06:28.644Z,32.17
2018-12-07T03:09:10.523Z,31.67
2018-12-07T03:11:50.402Z,31.15
2018-12-07T03:14:30.790Z,31.91
2018-12-07T03:17:11.811Z,31.81
2018-12-07T03:19:51.093Z,31.82
2018-12-07T03:22:30.594Z,32.05
2018-12-07T03:25:09.893Z,32.11
2018-12-07T03:27:49.278Z,31.73
2018-12-07T03:30:28.355Z,31.96
2018-12-07T03:33:07.263Z,32.82
2018-12-07T03:35:46.254Z,31.54
2018-12-07T03:38:26.085Z,31.52
2018-12-07T03:41:05.075Z,32.18
2018-12-07T03:43:44.670Z,31.56
2018-12-07T03:46:24.001Z,32.03
2018-12-07T03:49:03.685Z,31.32
2018-12-07T03:51:42.877Z,31.21
2018-12-07T03:54:27.060Z,30.90
2018-12-07T03:57:07.003Z,30.59
2018-12-07T03:59:46.064Z,30.60
2018-12-07T04:02:27.558Z,30.77
2018-12-07T04:05:07.392Z,30.29
2018-12-07T04:07:49.919Z,30.86
2018-12-07T04:14:15.568Z,30.50
2018-12-07T04:16:54.784Z,30.21
2018-12-07T04:19:33.797Z,29.96
2018-12-07T04:22:12.750Z,29.95
2018-12-07T04:24:53.340Z,30.38
2018-12-07T04:27:33.617Z,29.86
2018-12-07T04:30:23.607Z,30.05
2018-12-07T04:33:04.917Z,29.93
2018-12-07T04:35:45.034Z,30.71
2018-12-07T04:38:25.517Z,30.23
2018-12-07T04:41:05.856Z,30.15
2018-12-07T04:43:45.448Z,29.42
2018-12-07T04:46:24.511Z,29.55
2018-12-07T04:49:05.847Z,29.93
2018-12-07T04:51:45.718Z,29.91
2018-12-07T04:54:24.855Z,29.67
2018-12-07T04:57:04.123Z,29.81
2018-12-07T04:59:43.683Z,29.47
2018-12-07T05:02:23.452Z,29.37
2018-12-07T05:05:03.750Z,29.15
2018-12-07T05:07:45.870Z,28.97
2018-12-07T05:10:26.843Z,28.37
2018-12-07T05:13:07.871Z,28.32
2018-12-07T05:15:50.677Z,28.76
2018-12-07T05:18:31.740Z,28.08
2018-12-07T05:21:12.780Z,29.04
2018-12-07T05:23:52.663Z,28.48
2018-12-07T05:26:32.413Z,28.64
2018-12-07T05:29:12.343Z,29.24
2018-12-07T05:31:53.437Z,28.74
2018-12-07T05:34:35.032Z,28.50
2018-12-07T05:37:17.682Z,28.59
2018-12-07T05:39:57.867Z,28.81
2018-12-07T05:48:03.908Z,28.84
2018-12-07T05:50:43.999Z,28.91
2018-12-07T05:53:25.288Z,28.74
2018-12-07T05:56:04.818Z,29.26
2018-12-07T05:58:44.307Z,29.33
2018-12-07T06:01:23.286Z,29.21
2018-12-07T06:04:03.149Z,29.13
2018-12-07T06:06:43.284Z,29.38
2018-12-07T06:09:22.666Z,29.68
2018-12-07T06:12:08.248Z,29.78
2018-12-07T06:14:47.410Z,29.87
2018-12-07T06:17:26.571Z,29.32
2018-12-07T06:20:05.422Z,29.79
2018-12-07T06:22:44.661Z,29.63
2018-12-07T06:25:24.189Z,29.84
2018-12-07T06:28:04.891Z,29.48
2018-12-07T06:30:45.293Z,29.50
2018-12-07T06:33:25.370Z,29.57
2018-12-07T06:36:04.923Z,29.02
2018-12-07T06:38:45.659Z,28.99
2018-12-07T06:41:24.576Z,28.72
2018-12-07T06:44:03.920Z,28.43
2018-12-07T06:46:43.514Z,29.15
2018-12-07T06:49:23.248Z,28.27
2018-12-07T06:52:02.344Z,28.02
2018-12-07T06:54:42.438Z,28.19
2018-12-07T06:57:22.854Z,28.50
2018-12-07T07:00:03.687Z,27.45
2018-12-07T07:02:44.429Z,28.30
2018-12-07T07:05:25.817Z,27.95
2018-12-07T07:08:06.260Z,27.76
2018-12-07T07:10:48.100Z,28.18
2018-12-07T07:13:29.619Z,28.02
2018-12-07T07:16:09.516Z,28.10
2018-12-07T07:18:49.275Z,28.36
2018-12-07T07:21:35.275Z,29.46
2018-12-07T07:24:15.564Z,28.71
2018-12-07T07:26:54.917Z,28.05
2018-12-07T07:29:37.461Z,27.93
2018-12-07T07:32:19.072Z,28.01
2018-12-07T07:35:01.072Z,27.84
2018-12-07T07:37:42.459Z,28.42
2018-12-07T07:40:26.234Z,28.67
2018-12-07T07:43:09.652Z,29.32
2018-12-07T07:45:52.492Z,28.66
2018-12-07T07:48:39.340Z,28.46
2018-12-07T07:51:24.051Z,28.92
2018-12-07T07:54:05.341Z,28.43
2018-12-07T07:56:46.914Z,28.39
2018-12-07T07:59:31.002Z,28.35
2018-12-07T08:02:13.098Z,28.38
2018-12-07T08:04:54.077Z,28.85
2018-12-07T08:07:35.196Z,29.79
2018-12-07T08:10:16.737Z,28.93
2018-12-07T08:12:58.852Z,29.01
2018-12-07T08:15:43.016Z,29.27
2018-12-07T08:18:26.909Z,29.34
2018-12-07T08:21:12.453Z,28.58
2018-12-07T08:23:55.218Z,29.46
2018-12-07T08:26:40.317Z,29.12
2018-12-07T08:29:23.935Z,28.97
2018-12-07T08:32:07.360Z,28.83
2018-12-07T08:34:52.284Z,29.26
2018-12-07T08:37:35.742Z,28.93
2018-12-07T08:40:17.749Z,29.20
2018-12-07T08:42:57.865Z,28.86
2018-12-07T08:45:37.010Z,29.32
2018-12-07T08:48:16.355Z,29.11
2018-12-07T08:50:55.571Z,29.17
2018-12-07T08:53:34.630Z,29.81
2018-12-07T08:56:13.646Z,29.68
2018-12-07T08:58:53.169Z,29.59
2018-12-07T09:01:32.331Z,29.51
2018-12-07T09:04:11.282Z,29.05
2018-12-07T09:06:50.271Z,29.43
2018-12-07T09:09:30.657Z,28.92
2018-12-07T09:12:10.179Z,29.19
2018-12-07T09:14:49.153Z,29.64
2018-12-07T09:17:32.935Z,29.29
2018-12-07T09:20:13.112Z,29.87
2018-12-07T09:22:53.722Z,29.76
2018-12-07T09:25:33.589Z,29.60
2018-12-07T09:28:13.740Z,29.44
2018-12-07T09:30:55.191Z,29.75
2018-12-07T09:33:36.999Z,29.79
2018-12-07T09:36:20.380Z,29.16
2018-12-07T09:39:02.267Z,29.29
2018-12-07T09:41:43.230Z,29.17
2018-12-07T09:44:25.006Z,29.45
2018-12-07T09:47:10.950Z,29.05
2018-12-07T09:49:53.012Z,28.56
2018-12-07T09:52:34.400Z,28.76
2018-12-07T09:55:18.100Z,29.67
2018-12-07T09:58:02.067Z,29.73
2018-12-07T10:00:48.039Z,29.46
2018-12-07T10:03:28.546Z,29.69
2018-12-07T10:06:14.122Z,29.57
2018-12-07T10:08:55.170Z,29.84
2018-12-07T10:11:36.162Z,29.35
2018-12-07T10:14:16.623Z,28.85
2018-12-07T10:16:57.303Z,29.23
2018-12-07T10:19:38.285Z,29.62
2018-12-07T10:22:18.186Z,29.98
2018-12-07T10:24:58.621Z,30.23
2018-12-07T10:27:39.070Z,30.00
2018-12-07T10:30:20.201Z,29.92
2018-12-07T10:32:59.881Z,29.91
2018-12-07T10:35:40.881Z,30.15
2018-12-07T10:38:23.435Z,30.26
2018-12-07T10:41:05.670Z,30.31
2018-12-07T10:43:45.935Z,30.47
2018-12-07T10:46:28.702Z,30.80
2018-12-07T10:49:12.025Z,30.35
2018-12-07T10:51:55.270Z,30.19
2018-12-07T10:54:37.212Z,30.08
2018-12-07T10:57:20.105Z,30.09
2018-12-07T11:00:02.121Z,30.53
2018-12-07T11:02:48.485Z,30.41
2018-12-07T11:06:34.909Z,29.82
2018-12-07T11:09:21.200Z,29.86
2018-12-07T11:12:05.999Z,30.32
2018-12-07T11:14:51.643Z,30.41
2018-12-07T11:17:38.858Z,30.07
2018-12-07T11:21:22.304Z,29.96
2018-12-07T11:24:07.240Z,30.21
2018-12-07T11:26:55.034Z,30.53
2018-12-07T11:29:39.732Z,29.77
2018-12-07T11:32:24.198Z,31.30
2018-12-07T11:35:09.764Z,30.06
2018-12-07T11:37:51.249Z,29.81
2018-12-07T11:40:32.763Z,29.60
2018-12-07T11:43:15.008Z,29.75
2018-12-07T11:45:58.334Z,29.75
2018-12-07T11:48:44.210Z,29.93
2018-12-07T11:51:30.680Z,30.04
2018-12-07T11:54:17.673Z,30.64
2018-12-07T11:57:03.134Z,30.96
2018-12-07T11:59:46.713Z,31.43
2018-12-07T12:02:34.879Z,30.81
2018-12-07T12:05:17.122Z,30.75
2018-12-07T12:07:58.634Z,31.49
2018-12-07T12:10:42.522Z,32.31
2018-12-07T12:13:24.698Z,31.36
2018-12-07T12:16:08.658Z,31.56
2018-12-07T12:18:50.678Z,31.54
2018-12-07T12:21:33.252Z,31.21
2018-12-07T12:24:14.907Z,31.73
2018-12-07T12:26:58.426Z,31.77
2018-12-07T12:29:40.839Z,32.24
2018-12-07T12:32:23.078Z,32.98
2018-12-07T12:35:05.639Z,32.25
2018-12-07T12:37:49.567Z,31.73
2018-12-07T12:40:36.218Z,32.20
2018-12-07T12:43:22.299Z,31.74
2018-12-07T12:46:05.544Z,32.52
2018-12-07T12:48:49.296Z,32.39
2018-12-07T12:51:31.401Z,32.46
2018-12-07T12:54:13.415Z,32.16
2018-12-07T12:56:55.282Z,32.30
2018-12-07T12:59:38.387Z,32.46
2018-12-07T13:02:21.196Z,32.29
2018-12-07T13:05:03.336Z,32.35
2018-12-07T13:07:45.478Z,32.08
2018-12-07T13:10:29.394Z,32.52
2018-12-07T13:13:11.149Z,32.40
2018-12-07T13:15:55.467Z,32.86
2018-12-07T13:18:39.186Z,32.48
2018-12-07T13:21:21.325Z,31.83
2018-12-07T13:24:04.409Z,32.27
2018-12-07T13:26:47.042Z,32.02
2018-12-07T13:29:29.082Z,31.40
2018-12-07T13:32:10.628Z,31.33
2018-12-07T13:34:52.847Z,31.71
2018-12-07T13:37:34.543Z,31.12
2018-12-07T13:40:16.979Z,31.61
2018-12-07T13:42:58.593Z,31.64
2018-12-07T13:45:40.685Z,31.59
2018-12-07T13:48:23.298Z,31.94
2018-12-07T13:51:04.215Z,32.23
2018-12-07T13:53:47.247Z,31.88
2018-12-07T13:56:28.633Z,32.48
2018-12-07T13:59:11.726Z,32.02
2018-12-07T14:01:55.221Z,32.04
2018-12-07T14:04:39.046Z,32.09
2018-12-07T14:07:20.849Z,32.35
2018-12-07T14:10:04.024Z,32.35
2018-12-07T14:12:54.924Z,33.56
2018-12-07T14:15:40.171Z,33.37
2018-12-07T14:18:24.093Z,32.73
2018-12-07T14:21:09.044Z,32.05
2018-12-07T14:23:53.151Z,32.24
2018-12-07T14:26:35.040Z,32.45
2018-12-07T14:29:18.655Z,32.66
2018-12-07T14:32:00.301Z,32.74
2018-12-07T14:34:42.980Z,33.27
2018-12-07T14:37:28.466Z,33.13
2018-12-07T14:40:13.689Z,33.43
2018-12-07T14:42:56.946Z,33.03
2018-12-07T14:45:38.315Z,33.10
2018-12-07T14:48:19.505Z,33.06
2018-12-07T14:51:02.435Z,33.43
2018-12-07T14:53:45.251Z,33.54
2018-12-07T14:56:26.552Z,33.14
2018-12-07T14:59:08.506Z,33.04
2018-12-07T15:01:50.072Z,33.56
2018-12-07T15:04:34.103Z,33.70
2018-12-07T15:07:13.830Z,32.51
2018-12-07T15:09:55.354Z,32.79
2018-12-07T15:12:35.562Z,33.10
2018-12-07T15:15:15.649Z,34.02
2018-12-07T15:17:57.620Z,33.20
2018-12-07T15:20:38.533Z,33.58
2018-12-07T15:23:18.844Z,33.35
2018-12-07T15:26:00.988Z,33.40
2018-12-07T15:28:45.041Z,33.06
2018-12-07T15:31:27.145Z,33.46
2018-12-07T15:34:09.970Z,33.64
2018-12-07T15:36:54.945Z,33.88
2018-12-07T15:39:36.013Z,33.39
2018-12-07T15:42:16.071Z,33.31
2018-12-07T15:44:56.047Z,33.49
2018-12-07T15:47:36.065Z,33.44
2018-12-07T15:50:16.693Z,33.58
2018-12-07T15:52:56.806Z,33.62
2018-12-07T15:55:36.537Z,33.11
2018-12-07T15:58:15.307Z,32.96
2018-12-07T16:01:00.577Z,33.73
2018-12-07T16:03:50.806Z,34.04
2018-12-07T16:06:30.227Z,33.24
2018-12-07T16:09:11.949Z,33.47
2018-12-07T16:11:51.349Z,34.10
2018-12-07T16:14:30.670Z,33.26
2018-12-07T16:17:10.867Z,33.25
2018-12-07T16:19:51.475Z,33.79
2018-12-07T16:22:32.226Z,33.66
2018-12-07T16:25:12.798Z,34.00
2018-12-07T16:27:54.230Z,33.54
2018-12-07T16:30:34.333Z,33.88
2018-12-07T16:33:14.582Z,34.25
2018-12-07T16:35:55.013Z,33.55
2018-12-07T16:38:35.652Z,33.87
2018-12-07T16:41:15.967Z,33.63
2018-12-07T16:43:55.702Z,33.79
2018-12-07T16:46:34.649Z,34.16
2018-12-07T16:49:13.859Z,33.92
2018-12-07T16:51:53.177Z,34.11
2018-12-07T16:54:32.556Z,34.18
2018-12-07T16:57:12.531Z,34.18
2018-12-07T16:59:51.489Z,34.09
2018-12-07T17:02:32.208Z,34.53
2018-12-07T17:05:13.130Z,34.48
2018-12-07T17:07:54.616Z,34.65
2018-12-07T17:10:33.797Z,34.79
2018-12-07T17:13:12.802Z,34.35
2018-12-07T17:15:54.085Z,34.56
2018-12-07T17:18:33.208Z,34.34
2018-12-07T17:21:13.756Z,34.38
2018-12-07T17:23:53.161Z,34.36
2018-12-07T17:26:33.590Z,34.66
2018-12-07T17:29:12.834Z,34.94
2018-12-07T17:31:53.681Z,34.77
2018-12-07T17:34:33.184Z,34.44
2018-12-07T17:37:12.535Z,34.37
2018-12-07T17:39:51.523Z,34.32
2018-12-07T17:42:31.790Z,34.37
2018-12-07T17:45:11.273Z,34.73
2018-12-07T17:47:50.561Z,35.33
2018-12-07T17:50:30.670Z,34.94
2018-12-07T17:53:09.774Z,35.66
2018-12-07T17:55:48.736Z,35.65
2018-12-07T17:58:27.737Z,35.74
2018-12-07T18:01:09.995Z,35.45
2018-12-07T18:03:48.941Z,35.67
2018-12-07T18:06:28.114Z,35.46
2018-12-07T18:09:13.317Z,35.80
2018-12-07T18:11:52.490Z,35.94
2018-12-07T18:14:31.217Z,35.36
2018-12-07T18:17:10.039Z,35.89
2018-12-07T18:19:48.700Z,35.96
2018-12-07T18:22:27.575Z,35.76
2018-12-07T18:25:06.973Z,35.41
2018-12-07T18:27:46.293Z,35.53
2018-12-07T18:30:25.960Z,36.35
2018-12-07T18:33:04.848Z,36.29
2018-12-07T18:35:44.645Z,35.96
2018-12-07T18:38:23.367Z,36.76
2018-12-07T18:41:05.828Z,36.13
2018-12-07T18:43:45.004Z,36.16
2018-12-07T18:46:25.917Z,35.86
2018-12-07T18:49:05.293Z,35.68
2018-12-07T18:51:44.227Z,35.88
2018-12-07T18:54:22.847Z,35.47
2018-12-07T18:57:01.921Z,35.59
2018-12-07T18:59:41.417Z,36.43
2018-12-07T19:02:20.039Z,36.14
2018-12-07T19:04:59.003Z,36.10
2018-12-07T19:07:37.978Z,35.87
2018-12-07T19:10:23.992Z,35.95
2018-12-07T19:13:02.721Z,36.21
2018-12-07T19:15:42.681Z,36.16
2018-12-07T19:18:21.476Z,35.43
2018-12-07T19:21:00.599Z,36.06
2018-12-07T19:23:39.215Z,36.15
2018-12-07T19:26:18.319Z,36.06
2018-12-07T19:28:57.464Z,36.20
2018-12-07T19:31:37.855Z,36.20
2018-12-07T19:34:16.566Z,36.14
2018-12-07T19:36:55.797Z,35.77
2018-12-07T19:39:34.531Z,35.99
2018-12-07T19:42:14.283Z,35.65
2018-12-07T19:44:52.974Z,36.27
2018-12-07T19:47:31.706Z,35.77
2018-12-07T19:50:10.640Z,36.35
2018-12-07T19:52:49.723Z,36.27
2018-12-07T19:55:28.788Z,35.66
2018-12-07T19:58:07.684Z,35.94
2018-12-07T20:00:47.511Z,35.68
2018-12-07T20:03:26.080Z,35.70
2018-12-07T20:06:06.687Z,35.70
2018-12-07T20:08:46.402Z,35.90
2018-12-07T20:11:33.224Z,35.58
2018-12-07T20:14:12.179Z,35.85
2018-12-07T20:16:51.409Z,36.13
2018-12-07T20:19:30.030Z,36.13
2018-12-07T20:22:08.702Z,36.37
2018-12-07T20:24:47.185Z,36.26
2018-12-07T20:27:27.123Z,35.71
2018-12-07T20:30:07.627Z,35.70
2018-12-07T20:32:46.652Z,35.76
2018-12-07T20:35:25.422Z,36.08
2018-12-07T20:38:04.543Z,35.89
2018-12-07T20:40:45.444Z,35.66
2018-12-07T20:43:38.119Z,35.42
2018-12-07T20:46:16.798Z,35.75
2018-12-07T20:48:56.692Z,35.80
2018-12-07T20:51:35.413Z,35.50
2018-12-07T20:54:14.077Z,35.40
2018-12-07T20:56:52.809Z,36.53
2018-12-07T20:59:31.570Z,35.93
2018-12-07T21:02:10.768Z,35.26
2018-12-07T21:04:50.126Z,35.36
2018-12-07T21:07:46.401Z,35.50
2018-12-07T21:10:43.095Z,34.89
2018-12-07T21:13:49.198Z,35.12
2018-12-07T21:17:16.212Z,34.73
2018-12-07T21:20:18.319Z,35.14
2018-12-07T21:22:57.280Z,34.70
2018-12-07T21:25:36.357Z,35.11
2018-12-07T21:28:15.481Z,35.49
2018-12-07T21:31:04.550Z,35.50
2018-12-07T21:33:58.200Z,35.50
2018-12-07T21:36:45.821Z,35.34
2018-12-07T21:39:55.926Z,35.05
2018-12-07T21:42:35.102Z,34.97
2018-12-07T21:45:13.924Z,35.05
2018-12-07T21:48:32.007Z,35.12
2018-12-07T21:51:21.426Z,35.84
2018-12-07T21:54:00.183Z,35.96
2018-12-07T21:56:39.374Z,35.76
2018-12-07T21:59:18.323Z,35.11
2018-12-07T22:01:57.255Z,35.25
2018-12-07T22:04:36.550Z,35.00
2018-12-07T22:07:17.459Z,35.26
2018-12-07T22:09:57.917Z,35.27
2018-12-07T22:12:37.002Z,35.04
2018-12-07T22:15:16.154Z,34.86
2018-12-07T22:17:55.835Z,35.18
2018-12-07T22:20:34.793Z,35.55
2018-12-07T22:23:14.888Z,35.65
2018-12-07T22:25:54.029Z,35.46
2018-12-07T22:28:33.056Z,35.28
2018-12-07T22:31:12.213Z,35.13
2018-12-07T22:33:51.799Z,35.28
2018-12-07T22:36:31.903Z,35.35
2018-12-07T22:39:11.897Z,35.20
2018-12-07T22:41:51.102Z,35.26
2018-12-07T22:44:30.505Z,35.62
2018-12-07T22:47:13.608Z,35.40
2018-12-07T22:49:52.796Z,35.92
2018-12-07T22:52:31.776Z,36.17
2018-12-07T22:55:11.720Z,35.64
2018-12-07T22:57:50.691Z,35.41
2018-12-07T23:00:30.049Z,35.60
2018-12-07T23:03:09.992Z,35.69
2018-12-07T23:05:48.952Z,35.80
2018-12-07T23:08:28.086Z,36.04
2018-12-07T23:11:07.654Z,36.02
2018-12-07T23:13:46.586Z,36.45
2018-12-07T23:16:29.889Z,36.19
2018-12-07T23:19:09.143Z,36.66
2018-12-07T23:21:49.596Z,37.36
2018-12-07T23:24:29.147Z,36.89
2018-12-07T23:27:08.687Z,36.19
2018-12-07T23:29:49.328Z,36.45
2018-12-07T23:32:30.619Z,36.63
2018-12-07T23:35:12.917Z,35.79
2018-12-07T23:37:56.406Z,36.21
2018-12-07T23:40:37.333Z,35.92
2018-12-07T23:43:20.882Z,35.14
2018-12-07T23:46:01.727Z,35.61
2018-12-07T23:48:41.761Z,35.62
2018-12-07T23:51:22.840Z,36.19
2018-12-07T23:54:01.788Z,36.37
2018-12-07T23:56:41.148Z,36.37
2018-12-07T23:59:22.150Z,35.58
